AKST,Max TemperatureF,Mean TemperatureF,Min TemperatureF,Max Dew PointF,MeanDew PointF,Min DewpointF,Max Humidity, Mean Humidity, Min Humidity, Max Sea Level PressureIn, Mean Sea Level PressureIn, Min Sea Level PressureIn, Max VisibilityMiles, Mean VisibilityMiles, Min VisibilityMiles, Max Wind SpeedMPH, Mean Wind SpeedMPH, Max Gust SpeedMPH,PrecipitationIn, CloudCover, Events, WindDirDegrees
2014-1-1,18,14,9,14,11,7,0,0,0,29.47,29.32,29.26,10,10,9,7,1,8,T,7,Snow,47
2014-1-2,21,17,13,20,16,10,0,0,0,29.72,29.65,29.50,10,9,4,18,9,25,T,8,Snow,84
2014-1-3,29,21,13,25,22,12,0,0,0,30.05,29.80,29.66,10,9,5,22,9,30,T,7,Snow,47
2014-1-4,29,20,11,23,18,12,0,0,0,30.10,30.00,29.67,10,9,2,37,14,44,T,4,Snow,40
2014-1-5,26,24,21,25,17,11,0,0,0,29.66,29.48,29.39,10,7,1,38,18,46,0.01,5,Snow,51
2014-1-6,31,29,26,30,27,24,0,0,0,29.44,29.43,29.41,10,5,2,21,13,26,0.08,8,Snow,70
2014-1-7,33,29,24,31,28,22,0,0,0,29.47,29.43,29.39,10,7,2,21,12,28,0.05,7,Snow,64
2014-1-8,34,28,21,27,22,19,0,0,0,29.39,29.28,29.24,10,6,2,20,9,23,0.12,8,Snow,17
2014-1-9,22,20,17,18,15,12,0,0,0,29.55,29.36,29.26,10,5,2,20,13,23,0.02,8,Snow,30
2014-1-10,18,13,7,12,1,-6,0,0,0,29.67,29.62,29.55,10,10,10,22,11,26,T,4,Snow,36
2014-1-11,12,6,0,-6,-8,-11,0,0,0,29.58,29.45,29.37,10,10,10,23,11,29,0.00,0,,9
2014-1-12,4,-1,-5,-6,-8,-10,0,0,0,29.44,29.37,29.34,10,10,10,17,8,21,0.00,1,,346
2014-1-13,0,-4,-7,-9,-11,-13,0,0,0,29.48,29.43,29.31,10,10,10,17,10,21,0.00,2,,3
2014-1-14,0,-6,-12,-11,-14,-18,0,0,0,29.60,29.35,29.26,10,10,9,20,4,24,0.00,3,,355
2014-1-15,-3,-10,-17,-11,-16,-20,0,0,0,29.90,29.82,29.63,10,10,10,16,4,18,0.00,0,,3
2014-1-16,7,1,-6,-7,-11,-15,0,0,0,29.78,29.71,29.66,10,10,7,31,17,38,0.00,4,Snow,5
2014-1-17,30,18,6,27,13,-8,0,0,0,29.70,28.97,28.71,6,2,0,58,36,61,0.23,8,Fog-Snow,32
2014-1-18,33,28,23,30,26,23,0,0,0,29.27,28.93,28.70,10,4,1,28,17,38,0.17,8,Snow,100
2014-1-19,28,23,18,25,22,17,0,0,0,29.66,29.52,29.27,10,9,3,20,12,23,T,7,Snow,110
2014-1-20,34,30,26,32,29,19,0,0,0,29.59,29.36,29.29,10,6,0,35,21,41,0.10,8,Rain-Snow,75
2014-1-21,36,33,30,33,31,30,0,0,0,29.31,29.24,29.18,10,6,2,23,14,29,0.15,8,Rain-Snow,92
2014-1-22,31,18,5,30,20,4,0,0,0,29.63,29.48,29.33,10,7,2,21,9,25,T,6,Snow,358
2014-1-23,36,32,28,35,32,26,0,0,0,29.43,29.36,29.31,10,6,2,24,13,29,0.11,8,Rain-Snow,75
2014-1-24,35,34,33,34,32,28,0,0,0,29.76,29.49,29.39,10,8,3,18,16,24,0.17,8,Rain,101
2014-1-25,40,33,26,31,28,24,0,0,0,29.89,29.80,29.65,10,10,10,22,14,28,T,5,Rain,81
2014-1-26,45,41,36,32,30,28,0,0,0,29.78,29.67,29.58,10,10,10,20,15,26,T,4,,78
2014-1-27,51,45,38,32,31,30,0,0,0,29.78,29.60,29.48,10,10,10,25,14,31,0.00,3,,59
2014-1-28,38,35,32,31,29,28,0,0,0,29.79,29.74,29.58,10,10,10,22,16,29,0.00,5,,82
2014-1-29,33,31,28,29,27,24,0,0,0,29.88,29.83,29.79,10,10,10,21,16,26,0.00,3,,83
2014-1-30,33,31,29,32,28,26,0,0,0,30.00,29.96,29.90,10,10,7,21,16,28,0.11,7,Rain-Snow,82
2014-1-31,34,32,29,34,31,28,0,0,0,30.25,30.07,29.94,10,4,1,17,10,22,0.25,8,Rain-Snow,128